Time;durP1;ratioP1;P1;durP2;ratioP2;P2;SDS_P1;SDS_P2;PMS_P1;PMS_P2;Temp;Humidity;BMP_temperature;BMP_pressure;BME280_temperature;BME280_humidity;BME280_pressure;Samples;Min_cycle;Max_cycle;Signal;HPM_P1;HPM_P2
2022/05/10 00:07:15;;;;;;;;;;;9.90;99.90;;;;;;5052820;28;19914;-69
2022/05/10 00:09:42;;;;;;;;;;;9.90;99.90;;;;;;5067941;28;19927;-70
2022/05/10 00:12:11;;;;;;;;;;;9.80;99.90;;;;;;5067866;28;20481;-69
2022/05/10 00:14:38;;;;;;;;;;;9.80;99.90;;;;;;5082708;28;19928;-69
2022/05/10 00:17:05;;;;;;;;;;;9.80;99.90;;;;;;5065061;28;19920;-69
2022/05/10 00:19:31;;;;;;;;;;;9.80;99.90;;;;;;5062196;28;19921;-69
2022/05/10 00:21:58;;;;;;;;;;;9.90;99.90;;;;;;5065821;28;19920;-69
2022/05/10 00:24:25;;;;;;;;;;;9.90;99.90;;;;;;5063598;28;20567;-69
2022/05/10 00:26:52;;;;;;;;;;;9.90;99.90;;;;;;5068697;28;19920;-69
2022/05/10 00:29:19;;;;;;;;;;;9.90;99.90;;;;;;5057316;28;20393;-69
2022/05/10 00:31:46;;;;;;;;;;;9.90;99.90;;;;;;5063171;28;19920;-69
2022/05/10 00:34:15;;;;;;;;;;;9.90;99.90;;;;;;5067075;28;19960;-69
2022/05/10 00:36:42;;;;;;;;;;;9.80;99.90;;;;;;5071376;28;20019;-69
2022/05/10 00:39:09;;;;;;;;;;;9.70;99.90;;;;;;5080633;28;20404;-69
2022/05/10 00:41:42;;;;;;;;;;;9.60;99.90;;;;;;5068554;28;19920;-69
2022/05/10 00:44:14;;;;;;;;;;;9.60;99.90;;;;;;5071420;28;19925;-69
2022/05/10 00:46:44;;;;;;;;;;;9.60;99.90;;;;;;5072447;28;20007;-69
2022/05/10 00:49:23;;;;;;;;;;;9.60;99.90;;;;;;5056569;28;20442;-69
2022/05/10 00:51:57;;;;;;;;;;;9.70;99.90;;;;;;5067393;28;19955;-69
2022/05/10 00:54:42;;;;;;;;;;;9.70;99.90;;;;;;5064404;28;20330;-69
2022/05/10 00:57:15;;;;;;;;;;;9.70;99.90;;;;;;5067523;28;19926;-68
2022/05/10 00:59:49;;;;;;;;;;;9.70;99.90;;;;;;5073925;28;19942;-68
2022/05/10 01:02:21;;;;;;;;;;;9.70;99.90;;;;;;5077611;28;19927;-68
2022/05/10 01:04:55;;;;;;;;;;;9.70;99.90;;;;;;5074110;28;19924;-69
2022/05/10 01:07:26;;;;;;;;;;;9.60;99.90;;;;;;5067315;28;20011;-69
2022/05/10 01:09:55;;;;;;;;;;;9.60;99.90;;;;;;5064202;28;20015;-69
2022/05/10 01:12:35;;;;;;;;;;;9.50;99.90;;;;;;5058233;28;19921;-69
2022/05/10 01:15:06;;;;;;;;;;;9.50;99.90;;;;;;5063450;28;19926;-68
2022/05/10 01:17:33;;;;;;;;;;;9.40;99.90;;;;;;5067129;28;20015;-69
2022/05/10 01:20:00;;;;;;;;;;;9.30;99.90;;;;;;5072311;28;19928;-68
2022/05/10 01:22:29;;;;;;;;;;;9.20;99.90;;;;;;5073844;28;19924;-69
2022/05/10 01:24:59;;;;;;;;;;;9.20;99.90;;;;;;5054323;28;19924;-69
2022/05/10 01:27:38;;;;;;;;;;;9.10;99.90;;;;;;5058095;28;20015;-69
2022/05/10 01:30:22;;;;;;;;;;;9.00;99.90;;;;;;5070037;28;19974;-69
2022/05/10 01:35:46;;;;;;;;;;;8.90;99.90;;;;;;5073550;28;19928;-68
2022/05/10 01:38:44;;;;;;;;;;;8.80;99.90;;;;;;5072100;28;20282;-68
2022/05/10 01:41:19;;;;;;;;;;;8.80;99.90;;;;;;5023597;28;19967;-68
2022/05/10 01:44:06;;;;;;;;;;;8.80;99.90;;;;;;5068027;28;19920;-69
2022/05/10 01:46:33;;;;;;;;;;;8.80;99.90;;;;;;5067502;28;19920;-69
2022/05/10 01:49:04;;;;;;;;;;;8.80;99.90;;;;;;5067965;28;19924;-69
2022/05/10 01:51:38;;;;;;;;;;;8.80;99.90;;;;;;5061292;28;19920;-69
2022/05/10 01:54:16;;;;;;;;;;;8.70;99.90;;;;;;5061152;28;19925;-69
2022/05/10 01:56:43;;;;;;;;;;;8.70;99.90;;;;;;5069003;28;19920;-69
2022/05/10 01:59:10;;;;;;;;;;;8.80;99.90;;;;;;5060954;28;19920;-69
2022/05/10 02:01:39;;;;;;;;;;;8.80;99.90;;;;;;5062212;28;20007;-69
2022/05/10 02:04:11;;;;;;;;;;;8.80;99.90;;;;;;5062095;28;20383;-69
2022/05/10 02:06:57;;;;;;;;;;;8.90;99.90;;;;;;5060370;28;20027;-68
2022/05/10 02:09:33;;;;;;;;;;;9.00;99.90;;;;;;5079099;28;19920;-68
2022/05/10 02:12:26;;;;;;;;;;;9.00;99.90;;;;;;5061711;28;19927;-68
2022/05/10 02:15:16;;;;;;;;;;;9.10;99.90;;;;;;5073676;28;19924;-68
2022/05/10 02:17:46;;;;;;;;;;;9.00;99.90;;;;;;5062787;28;19928;-68
2022/05/10 02:20:17;;;;;;;;;;;9.00;99.90;;;;;;5059908;28;19921;-68
2022/05/10 02:22:49;;;;;;;;;;;8.90;99.90;;;;;;5071138;28;19920;-68
2022/05/10 02:25:36;;;;;;;;;;;8.90;99.90;;;;;;5070643;28;19958;-68
2022/05/10 02:28:24;;;;;;;;;;;8.90;99.90;;;;;;5075532;28;20259;-68
2022/05/10 02:30:52;;;;;;;;;;;8.80;99.90;;;;;;5096317;28;20678;-68
2022/05/10 02:33:20;;;;;;;;;;;8.80;99.90;;;;;;5071361;28;19964;-68
2022/05/10 02:35:57;;;;;;;;;;;8.80;99.90;;;;;;5078790;28;19930;-68
2022/05/10 02:38:25;;;;;;;;;;;8.70;99.90;;;;;;5072332;28;20011;-68
2022/05/10 02:40:54;;;;;;;;;;;8.70;99.90;;;;;;5076170;28;19928;-68
2022/05/10 02:43:29;;;;;;;;;;;8.70;99.90;;;;;;5061939;28;20383;-68
2022/05/10 02:45:56;;;;;;;;;;;8.70;99.90;;;;;;5075696;28;19920;-68
2022/05/10 02:48:26;;;;;;;;;;;8.60;99.90;;;;;;5068297;28;19920;-68
2022/05/10 02:50:53;;;;;;;;;;;8.60;99.90;;;;;;5070758;28;19928;-69
2022/05/10 02:53:20;;;;;;;;;;;8.70;99.90;;;;;;5076056;28;19943;-69
2022/05/10 02:55:51;;;;;;;;;;;8.80;99.90;;;;;;5067772;28;19927;-69
2022/05/10 02:58:18;;;;;;;;;;;8.90;99.90;;;;;;5074704;28;19923;-68
2022/05/10 03:00:45;;;;;;;;;;;8.90;99.90;;;;;;5067085;28;19924;-68
2022/05/10 03:03:15;;;;;;;;;;;8.80;99.90;;;;;;5070684;28;19920;-69
2022/05/10 03:05:44;;;;;;;;;;;8.80;99.90;;;;;;5062288;28;19960;-68
2022/05/10 03:08:11;;;;;;;;;;;8.80;99.90;;;;;;5080024;28;19959;-68
2022/05/10 03:10:40;;;;;;;;;;;8.80;99.90;;;;;;5079741;28;20031;-68
2022/05/10 03:13:06;;;;;;;;;;;8.70;99.90;;;;;;5062403;28;19928;-68
2022/05/10 03:15:33;;;;;;;;;;;8.70;99.90;;;;;;5077497;28;19919;-69
2022/05/10 03:18:00;;;;;;;;;;;8.80;99.90;;;;;;5065535;28;19951;-68
2022/05/10 03:20:30;;;;;;;;;;;8.90;99.90;;;;;;5070666;28;19959;-69
2022/05/10 03:22:57;;;;;;;;;;;8.90;99.90;;;;;;5060888;28;19939;-69
2022/05/10 03:25:24;;;;;;;;;;;8.90;99.90;;;;;;5063206;28;20545;-67
2022/05/10 03:27:51;;;;;;;;;;;9.00;99.90;;;;;;5067592;28;19920;-68
2022/05/10 03:30:17;;;;;;;;;;;9.00;99.90;;;;;;5070012;28;19951;-68
2022/05/10 03:32:44;;;;;;;;;;;9.00;99.90;;;;;;5069967;28;21760;-68
2022/05/10 03:35:12;;;;;;;;;;;9.00;99.90;;;;;;5065313;28;20291;-68
2022/05/10 03:37:38;;;;;;;;;;;9.00;99.90;;;;;;5062760;28;19924;-68
2022/05/10 03:40:05;;;;;;;;;;;9.00;99.90;;;;;;5072207;28;19926;-68
2022/05/10 03:42:33;;;;;;;;;;;9.10;99.90;;;;;;5069772;28;19920;-68
2022/05/10 03:45:00;;;;;;;;;;;9.10;99.90;;;;;;5062782;28;19920;-68
2022/05/10 03:47:30;;;;;;;;;;;9.00;99.90;;;;;;5061725;28;19921;-68
2022/05/10 03:49:57;;;;;;;;;;;9.00;99.90;;;;;;5067335;28;19921;-68
2022/05/10 03:52:24;;;;;;;;;;;9.00;99.90;;;;;;5068225;28;19928;-68
2022/05/10 03:54:51;;;;;;;;;;;9.00;99.90;;;;;;5067048;28;20294;-68
2022/05/10 03:57:17;;;;;;;;;;;8.80;99.90;;;;;;5066613;28;19920;-68
2022/05/10 03:59:46;;;;;;;;;;;8.80;99.90;;;;;;5068457;28;19927;-69
2022/05/10 04:02:14;;;;;;;;;;;8.70;99.90;;;;;;5063945;28;19920;-69
2022/05/10 04:04:41;;;;;;;;;;;8.70;99.90;;;;;;5067224;28;19921;-68
2022/05/10 04:07:08;;;;;;;;;;;8.60;99.90;;;;;;5062891;28;19938;-68
2022/05/10 04:09:35;;;;;;;;;;;8.60;99.90;;;;;;5067936;28;19927;-68
2022/05/10 04:12:02;;;;;;;;;;;8.60;99.90;;;;;;5062600;28;20016;-68
2022/05/10 04:14:29;;;;;;;;;;;8.70;99.90;;;;;;5067759;28;19930;-69
2022/05/10 04:16:56;;;;;;;;;;;8.80;99.90;;;;;;5067181;28;20369;-68
2022/05/10 04:19:25;;;;;;;;;;;8.90;99.90;;;;;;5070053;28;20424;-68
2022/05/10 04:21:52;;;;;;;;;;;8.90;99.90;;;;;;5077253;28;20091;-68
2022/05/10 04:24:20;;;;;;;;;;;9.00;99.90;;;;;;5069573;28;20014;-68
2022/05/10 04:26:47;;;;;;;;;;;9.10;99.90;;;;;;5064498;28;19998;-68
2022/05/10 04:29:14;;;;;;;;;;;9.30;99.90;;;;;;5069752;28;19921;-68
2022/05/10 04:31:41;;;;;;;;;;;9.40;99.90;;;;;;5064683;28;19959;-68
2022/05/10 04:34:08;;;;;;;;;;;9.70;99.90;;;;;;5055868;28;19921;-68
2022/05/10 04:36:35;;;;;;;;;;;9.80;99.90;;;;;;5064690;28;19986;-68
2022/05/10 04:39:02;;;;;;;;;;;10.10;99.90;;;;;;5069560;28;19928;-69
2022/05/10 04:41:32;;;;;;;;;;;10.30;99.90;;;;;;5072123;28;20607;-69
2022/05/10 04:44:03;;;;;;;;;;;10.50;99.90;;;;;;5088432;28;19920;-68
2022/05/10 04:46:31;;;;;;;;;;;10.70;99.90;;;;;;5076690;28;20026;-69
2022/05/10 04:48:58;;;;;;;;;;;11.00;99.90;;;;;;5064663;28;19931;-68
2022/05/10 04:51:25;;;;;;;;;;;11.30;99.90;;;;;;5063481;28;20012;-69
2022/05/10 04:53:55;;;;;;;;;;;11.50;99.90;;;;;;5072670;28;19920;-67
2022/05/10 04:56:21;;;;;;;;;;;11.80;99.90;;;;;;5058972;28;19921;-70
2022/05/10 04:58:54;;;;;;;;;;;12.00;99.90;;;;;;5067302;28;19924;-70
2022/05/10 05:01:26;;;;;;;;;;;12.20;99.90;;;;;;5073548;28;20562;-71
2022/05/10 05:03:55;;;;;;;;;;;12.50;99.90;;;;;;5079574;28;19946;-71
2022/05/10 05:06:24;;;;;;;;;;;12.80;99.90;;;;;;5061995;28;19928;-71
2022/05/10 05:08:51;;;;;;;;;;;12.70;99.90;;;;;;5053849;28;19924;-70
2022/05/10 05:11:18;;;;;;;;;;;13.00;99.90;;;;;;5063001;28;19920;-71
2022/05/10 05:13:45;;;;;;;;;;;13.10;99.90;;;;;;5074755;28;19921;-70
2022/05/10 05:16:13;;;;;;;;;;;13.40;99.90;;;;;;5071107;28;21670;-69
2022/05/10 05:18:41;;;;;;;;;;;13.70;99.90;;;;;;5049995;28;19933;-71
2022/05/10 05:21:08;;;;;;;;;;;13.90;99.90;;;;;;5062343;28;19924;-69
2022/05/10 05:23:35;;;;;;;;;;;14.20;99.90;;;;;;5070024;28;20551;-70
2022/05/10 05:26:02;;;;;;;;;;;14.30;99.90;;;;;;5071442;28;20034;-70
2022/05/10 05:28:29;;;;;;;;;;;14.60;99.90;;;;;;5062548;28;19929;-69
2022/05/10 05:30:56;;;;;;;;;;;14.50;99.90;;;;;;5065768;28;19928;-70
2022/05/10 05:33:23;;;;;;;;;;;14.10;99.90;;;;;;5069770;28;19954;-70
2022/05/10 05:35:49;;;;;;;;;;;13.80;99.90;;;;;;5072595;28;20023;-70
2022/05/10 05:38:16;;;;;;;;;;;14.00;99.90;;;;;;5081592;28;19925;-71
2022/05/10 05:40:43;;;;;;;;;;;14.10;99.90;;;;;;5063691;28;19924;-70
2022/05/10 05:43:15;;;;;;;;;;;14.30;99.90;;;;;;5073321;28;19935;-69
2022/05/10 05:45:42;;;;;;;;;;;14.60;99.90;;;;;;5056439;28;22260;-69
2022/05/10 05:48:10;;;;;;;;;;;14.70;99.90;;;;;;5064032;28;19933;-69
2022/05/10 05:50:37;;;;;;;;;;;14.80;99.90;;;;;;5066958;28;19925;-70
2022/05/10 05:53:04;;;;;;;;;;;15.00;99.90;;;;;;5069491;28;20302;-69
2022/05/10 05:55:30;;;;;;;;;;;15.70;99.90;;;;;;5064052;28;19925;-69
2022/05/10 05:57:57;;;;;;;;;;;16.90;99.90;;;;;;5076349;28;19963;-67
2022/05/10 06:00:25;;;;;;;;;;;17.90;99.90;;;;;;5065773;28;19924;-67
2022/05/10 06:02:55;;;;;;;;;;;18.20;99.90;;;;;;5064911;28;19968;-67
2022/05/10 06:05:22;;;;;;;;;;;18.60;99.90;;;;;;5074567;28;20036;-68
2022/05/10 06:07:49;;;;;;;;;;;19.10;99.90;;;;;;5058706;28;19928;-68
2022/05/10 06:10:16;;;;;;;;;;;19.40;99.90;;;;;;5064561;28;20047;-68
2022/05/10 06:12:46;;;;;;;;;;;19.70;99.90;;;;;;5064887;28;19964;-68
2022/05/10 06:15:14;;;;;;;;;;;20.10;99.90;;;;;;5073184;28;19924;-68
2022/05/10 06:17:42;;;;;;;;;;;20.20;99.90;;;;;;5071108;28;19925;-68
2022/05/10 06:20:10;;;;;;;;;;;20.10;99.90;;;;;;5066343;28;19956;-67
2022/05/10 06:22:37;;;;;;;;;;;20.30;99.90;;;;;;5065920;28;20276;-67
2022/05/10 06:25:04;;;;;;;;;;;20.30;99.90;;;;;;5066017;28;19924;-68
2022/05/10 06:27:32;;;;;;;;;;;19.70;99.90;;;;;;5093656;28;20294;-70
2022/05/10 06:29:59;;;;;;;;;;;19.50;99.90;;;;;;5061956;28;19931;-68
2022/05/10 06:32:26;;;;;;;;;;;19.60;99.90;;;;;;5067396;28;19924;-69
2022/05/10 06:34:53;;;;;;;;;;;20.00;99.90;;;;;;5070262;28;20003;-69
2022/05/10 06:40:09;;;;;;;;;;;21.30;99.90;;;;;;5062436;28;19931;-68
2022/05/10 06:42:39;;;;;;;;;;;21.80;99.90;;;;;;5063800;28;19928;-69
2022/05/10 06:45:09;;;;;;;;;;;21.40;99.90;;;;;;5067531;28;19924;-68
2022/05/10 06:47:37;;;;;;;;;;;21.80;99.90;;;;;;5064752;28;20339;-68
2022/05/10 06:50:07;;;;;;;;;;;21.60;99.90;;;;;;5056387;28;19943;-69
2022/05/10 06:52:35;;;;;;;;;;;22.00;99.90;;;;;;5063942;28;19964;-68
2022/05/10 06:55:02;;;;;;;;;;;22.30;99.90;;;;;;5072084;28;19928;-68
2022/05/10 06:57:29;;;;;;;;;;;22.70;99.90;;;;;;5072883;28;19936;-68
2022/05/10 06:59:56;;;;;;;;;;;22.70;99.90;;;;;;5064227;28;19924;-68
2022/05/10 07:02:26;;;;;;;;;;;23.10;99.90;;;;;;5061823;28;19932;-69
2022/05/10 07:04:53;;;;;;;;;;;23.30;99.90;;;;;;5066616;28;20015;-68
2022/05/10 07:07:19;;;;;;;;;;;23.00;99.90;;;;;;5062007;28;19940;-68
2022/05/10 07:09:46;;;;;;;;;;;22.40;99.90;;;;;;5064914;28;20396;-68
2022/05/10 07:12:13;;;;;;;;;;;22.10;99.90;;;;;;5058329;28;19932;-69
2022/05/10 07:14:45;;;;;;;;;;;22.00;99.90;;;;;;5065329;28;19924;-69
2022/05/10 07:17:12;;;;;;;;;;;21.90;99.90;;;;;;5060216;28;19934;-69
2022/05/10 07:19:39;;;;;;;;;;;22.00;99.90;;;;;;5058471;28;20303;-69
2022/05/10 07:22:06;;;;;;;;;;;22.40;99.90;;;;;;5059929;28;19924;-68
2022/05/10 07:24:33;;;;;;;;;;;22.80;99.90;;;;;;5059816;28;19936;-68
2022/05/10 07:27:02;;;;;;;;;;;23.20;99.90;;;;;;5078459;28;20072;-68
2022/05/10 07:29:28;;;;;;;;;;;23.80;99.90;;;;;;5072256;28;19932;-69
2022/05/10 07:31:55;;;;;;;;;;;24.50;99.90;;;;;;5068287;28;19935;-69
2022/05/10 07:34:22;;;;;;;;;;;25.10;99.90;;;;;;5083377;28;20015;-69
2022/05/10 07:36:48;;;;;;;;;;;25.80;99.90;;;;;;5085380;28;20012;-69
2022/05/10 07:39:15;;;;;;;;;;;26.10;99.90;;;;;;5069835;28;19932;-68
2022/05/10 07:41:43;;;;;;;;;;;26.50;99.90;;;;;;5067609;28;19929;-68
2022/05/10 07:44:11;;;;;;;;;;;26.50;99.90;;;;;;5068505;28;19927;-68
2022/05/10 07:46:37;;;;;;;;;;;26.80;99.90;;;;;;5075443;28;19924;-68
2022/05/10 07:49:04;;;;;;;;;;;26.60;99.90;;;;;;5060625;28;19925;-67
2022/05/10 07:51:31;;;;;;;;;;;26.20;99.90;;;;;;5072471;28;19924;-68
2022/05/10 07:53:57;;;;;;;;;;;25.80;99.90;;;;;;5071412;28;19936;-69
2022/05/10 07:56:24;;;;;;;;;;;26.00;99.90;;;;;;5070950;28;19925;-68
2022/05/10 07:58:55;;;;;;;;;;;26.00;99.90;;;;;;5063057;28;19928;-67
2022/05/10 08:01:23;;;;;;;;;;;26.20;99.90;;;;;;5066956;28;19931;-68
2022/05/10 08:03:50;;;;;;;;;;;26.60;99.90;;;;;;5062663;28;19933;-67
2022/05/10 08:06:17;;;;;;;;;;;26.30;99.90;;;;;;5064200;28;19933;-67
2022/05/10 08:08:44;;;;;;;;;;;26.80;99.90;;;;;;5065192;28;19928;-69
2022/05/10 08:11:10;;;;;;;;;;;26.80;99.90;;;;;;5072524;28;19933;-68
2022/05/10 08:13:37;;;;;;;;;;;27.20;99.90;;;;;;5095991;28;20011;-68
2022/05/10 08:16:04;;;;;;;;;;;27.10;99.90;;;;;;5063845;28;19963;-68
2022/05/10 08:18:31;;;;;;;;;;;26.90;99.90;;;;;;5061277;28;19924;-69
2022/05/10 08:20:59;;;;;;;;;;;26.70;99.90;;;;;;5062643;28;19925;-68
2022/05/10 08:23:28;;;;;;;;;;;26.70;99.90;;;;;;5063738;28;19928;-67
2022/05/10 08:25:55;;;;;;;;;;;27.00;99.90;;;;;;5059707;28;19956;-67
2022/05/10 08:28:23;;;;;;;;;;;27.60;99.90;;;;;;5054224;28;19928;-67
2022/05/10 08:30:50;;;;;;;;;;;27.40;99.90;;;;;;5061015;28;19925;-71
2022/05/10 08:33:21;;;;;;;;;;;26.90;99.90;;;;;;5063758;28;19929;-70
2022/05/10 08:35:48;;;;;;;;;;;26.70;99.90;;;;;;5061475;28;19935;-65
2022/05/10 08:38:15;;;;;;;;;;;27.20;99.90;;;;;;5067215;28;19928;-64
2022/05/10 08:40:45;;;;;;;;;;;27.50;99.90;;;;;;5065877;28;19967;-66
2022/05/10 08:43:16;;;;;;;;;;;27.40;99.90;;;;;;5069365;28;19947;-65
2022/05/10 08:45:44;;;;;;;;;;;28.20;99.90;;;;;;5070081;28;19924;-66
2022/05/10 08:48:11;;;;;;;;;;;28.20;99.90;;;;;;5078359;28;19999;-67
2022/05/10 08:50:39;;;;;;;;;;;28.50;99.90;;;;;;5071560;28;20026;-65
2022/05/10 08:53:07;;;;;;;;;;;28.20;99.90;;;;;;5065453;28;19931;-66
2022/05/10 08:55:36;;;;;;;;;;;27.40;99.90;;;;;;5066350;28;21915;-66
2022/05/10 08:58:21;;;;;;;;;;;27.30;99.90;;;;;;5065205;28;20003;-65
2022/05/10 09:01:11;;;;;;;;;;;27.10;99.90;;;;;;5059473;28;19929;-66
2022/05/10 09:03:45;;;;;;;;;;;27.00;99.90;;;;;;5059625;28;19929;-65
2022/05/10 09:06:34;;;;;;;;;;;26.80;99.90;;;;;;5066774;28;19931;-65
2022/05/10 09:09:09;;;;;;;;;;;26.50;99.90;;;;;;5057788;28;20010;-65
2022/05/10 09:12:09;;;;;;;;;;;25.40;99.90;;;;;;5067611;28;19931;-66
2022/05/10 09:14:55;;;;;;;;;;;24.60;99.90;;;;;;5077133;28;19994;-66
2022/05/10 09:17:22;;;;;;;;;;;24.40;99.90;;;;;;5064544;28;19974;-65
2022/05/10 09:19:50;;;;;;;;;;;24.40;99.90;;;;;;5063858;28;19951;-65
2022/05/10 09:22:49;;;;;;;;;;;24.90;99.90;;;;;;5060687;28;19931;-67
2022/05/10 09:25:18;;;;;;;;;;;25.40;99.90;;;;;;5064286;28;19930;-67
2022/05/10 09:27:45;;;;;;;;;;;25.50;99.90;;;;;;5073200;28;20023;-66
2022/05/10 09:30:23;;;;;;;;;;;26.20;99.90;;;;;;5065221;28;20125;-67
2022/05/10 09:35:46;;;;;;;;;;;27.00;99.90;;;;;;5054279;28;19999;-67
2022/05/10 09:38:16;;;;;;;;;;;27.40;99.90;;;;;;5057465;28;19924;-67
2022/05/10 09:40:44;;;;;;;;;;;28.00;99.90;;;;;;5056839;28;19936;-66
2022/05/10 09:43:32;;;;;;;;;;;28.00;99.90;;;;;;5067499;28;19973;-66
2022/05/10 09:46:04;;;;;;;;;;;28.50;99.90;;;;;;5055553;28;19925;-66
2022/05/10 09:48:30;;;;;;;;;;;28.70;99.90;;;;;;5063075;28;20039;-66
2022/05/10 09:50:59;;;;;;;;;;;28.50;99.90;;;;;;5070036;28;20023;-65
2022/05/10 09:53:30;;;;;;;;;;;28.30;99.90;;;;;;5069724;28;19925;-65
2022/05/10 09:56:04;;;;;;;;;;;28.10;99.90;;;;;;5083107;28;19924;-66
2022/05/10 09:58:31;;;;;;;;;;;;;;;;;;5061729;28;20027;-66
2022/05/10 10:00:59;;;;;;;;;;;;;;;;;;5070199;28;19947;-66
2022/05/10 10:03:26;;;;;;;;;;;;;;;;;;5061571;28;19928;-66
2022/05/10 10:05:54;;;;;;;;;;;;;;;;;;5072829;28;20363;-66
2022/05/10 10:08:21;;;;;;;;;;;;;;;;;;5060138;28;19925;-66
2022/05/10 10:10:48;;;;;;;;;;;;;;;;;;5062383;28;19932;-66
2022/05/10 10:13:15;;;;;;;;;;;;;;;;;;5072575;28;20371;-65
2022/05/10 10:15:42;;;;;;;;;;;;;;;;;;5078398;28;19928;-65
2022/05/10 10:18:09;;;;;;;;;;;;;;;;;;5078256;28;19936;-66
2022/05/10 10:20:36;;;;;;;;;;;;;;;;;;5072568;28;19925;-66
2022/05/10 10:23:03;;;;;;;;;;;;;;;;;;5067227;28;19925;-67
2022/05/10 10:25:31;;;;;;;;;;;;;;;;;;5057114;28;19931;-67
2022/05/10 10:27:58;;;;;;;;;;;;;;;;;;5062436;28;19939;-67
2022/05/10 10:30:25;;;;;;;;;;;;;;;;;;5056405;28;20410;-67
2022/05/10 10:32:52;;;;;;;;;;;;;;;;;;5070187;28;19943;-67
2022/05/10 10:35:20;;;;;;;;;;;;;;;;;;5064586;28;19963;-67
2022/05/10 10:37:47;;;;;;;;;;;;;;;;;;5068261;28;19931;-67
2022/05/10 10:40:14;;;;;;;;;;;;;;;;;;5063462;28;19925;-66
2022/05/10 10:42:48;;;;;;;;;;;;;;;;;;5057920;28;19929;-67
2022/05/10 10:45:15;;;;;;;;;;;;;;;;;;5098891;28;19925;-67
2022/05/10 10:47:43;;;;;;;;;;;;;;;;;;5063267;28;19932;-65
2022/05/10 10:50:12;;;;;;;;;;;;;;;;;;5061636;28;19928;-66
2022/05/10 10:52:39;;;;;;;;;;;;;;;;;;5061558;28;19931;-66
2022/05/10 10:55:06;;;;;;;;;;;;;;;;;;5068837;28;19928;-67
2022/05/10 10:57:33;;;;;;;;;;;;;;;;;;5057669;28;19929;-67
2022/05/10 11:00:00;;;;;;;;;;;;;;;;;;5068004;28;19924;-66
2022/05/10 11:02:28;;;;;;;;;;;;;;;;;;5061747;28;20516;-67
2022/05/10 11:04:55;;;;;;;;;;;;;;;;;;5058958;28;19936;-65
2022/05/10 11:07:22;;;;;;;;;;;;;;;;;;5057733;28;19947;-66
2022/05/10 11:09:52;;;;;;;;;;;;;;;;;;5056416;28;19925;-66
2022/05/10 11:12:19;;;;;;;;;;;;;;;;;;5077939;28;19925;-66
2022/05/10 11:14:46;;;;;;;;;;;;;;;;;;5066436;28;20251;-65
2022/05/10 11:17:13;;;;;;;;;;;;;;;;;;5064244;28;19932;-65
2022/05/10 11:19:40;;;;;;;;;;;;;;;;;;5060746;28;20291;-66
2022/05/10 11:22:07;;;;;;;;;;;;;;;;;;5069743;28;19934;-66
2022/05/10 11:24:34;;;;;;;;;;;;;;;;;;5068095;28;19931;-65
2022/05/10 11:27:01;;;;;;;;;;;;;;;;;;5068882;28;20006;-66
2022/05/10 11:29:31;;;;;;;;;;;;;;;;;;5064455;28;19944;-66
2022/05/10 11:31:58;;;;;;;;;;;;;;;;;;5067985;28;19928;-66
2022/05/10 11:34:28;;;;;;;;;;;;;;;;;;5086568;28;19924;-66
2022/05/10 11:36:59;;;;;;;;;;;;;;;;;;5057381;28;19931;-66
2022/05/10 11:39:26;;;;;;;;;;;;;;;;;;5057856;28;19929;-69
2022/05/10 11:41:56;;;;;;;;;;;;;;;;;;5058112;28;19974;-68
2022/05/10 11:44:25;;;;;;;;;;;;;;;;;;5062769;28;19925;-67
2022/05/10 11:46:52;;;;;;;;;;;;;;;;;;5060409;28;19951;-67
2022/05/10 11:49:19;;;;;;;;;;;;;;;;;;5067306;28;20354;-66
2022/05/10 11:51:46;;;;;;;;;;;;;;;;;;5060737;28;19924;-66
2022/05/10 11:54:13;;;;;;;;;;;;;;;;;;5064958;28;19925;-67
2022/05/10 11:56:40;;;;;;;;;;;;;;;;;;5081785;28;19933;-66
2022/05/10 11:59:07;;;;;;;;;;;;;;;;;;5062559;28;19924;-68
2022/05/10 12:01:34;;;;;;;;;;;;;;;;;;5063980;28;20291;-65
2022/05/10 12:04:01;;;;;;;;;;;;;;;;;;5071940;28;19924;-67
2022/05/10 12:06:31;;;;;;;;;;;;;;;;;;5060272;28;20299;-67
2022/05/10 12:09:01;;;;;;;;;;;;;;;;;;5068674;28;19924;-66
2022/05/10 12:11:28;;;;;;;;;;;;;;;;;;5065640;28;19928;-66
2022/05/10 12:22:18;;;;;;;;;;;;;;;;;;5062412;28;19925;-66
2022/05/10 12:24:45;;;;;;;;;;;;;;;;;;5065146;28;19925;-66
2022/05/10 12:27:13;;;;;;;;;;;;;;;;;;5052422;28;19929;-65
2022/05/10 12:29:40;;;;;;;;;;;;;;;;;;5062067;28;19932;-68
2022/05/10 12:32:09;;;;;;;;;;;;;;;;;;5067730;28;19933;-66
2022/05/10 12:34:38;;;;;;;;;;;;;;;;;;5061601;28;20391;-66
2022/05/10 12:37:05;;;;;;;;;;;;;;;;;;5063608;28;19936;-66
2022/05/10 12:39:32;;;;;;;;;;;;;;;;;;5062388;28;20319;-66
2022/05/10 12:42:00;;;;;;;;;;;;;;;;;;5065003;28;20322;-65
2022/05/10 12:44:27;;;;;;;;;;;;;;;;;;5065267;28;19955;-66
2022/05/10 12:46:54;;;;;;;;;;;;;;;;;;5064691;28;19932;-65
2022/05/10 12:49:21;;;;;;;;;;;;;;;;;;5060741;28;20405;-66
2022/05/10 12:51:52;;;;;;;;;;;;;;;;;;5067020;28;20280;-65
2022/05/10 12:54:19;;;;;;;;;;;;;;;;;;5058214;28;19935;-66
2022/05/10 12:56:46;;;;;;;;;;;;;;;;;;5053571;28;19925;-66
2022/05/10 12:59:14;;;;;;;;;;;;;;;;;;5059143;28;19929;-67
2022/05/10 13:01:41;;;;;;;;;;;;;;;;;;5059952;28;19924;-67
2022/05/10 13:04:09;;;;;;;;;;;;;;;;;;5066255;28;19925;-66
2022/05/10 13:06:38;;;;;;;;;;;;;;;;;;5068778;28;19928;-65
2022/05/10 13:09:05;;;;;;;;;;;;;;;;;;5065000;28;19924;-66
2022/05/10 13:11:34;;;;;;;;;;;;;;;;;;5065962;28;19925;-67
2022/05/10 13:14:04;;;;;;;;;;;;;;;;;;5066730;28;19924;-66
2022/05/10 13:16:35;;;;;;;;;;;;;;;;;;5071133;28;19934;-66
2022/05/10 13:19:02;;;;;;;;;;;;;;;;;;5071256;28;19932;-66
2022/05/10 13:21:29;;;;;;;;;;;;;;;;;;5069266;28;20470;-65
2022/05/10 13:23:57;;;;;;;;;;;;;;;;;;5061556;28;19925;-65
2022/05/10 13:26:29;;;;;;;;;;;;;;;;;;5060046;28;19928;-66
2022/05/10 13:28:56;;;;;;;;;;;;;;;;;;5057255;28;19933;-62
2022/05/10 13:31:23;;;;;;;;;;;;;;;;;;5056329;28;19929;-62
2022/05/10 13:33:55;;;;;;;;;;;;;;;;;;5063946;28;19974;-62
2022/05/10 13:36:22;;;;;;;;;;;;;;;;;;5064387;28;19935;-63
2022/05/10 13:38:49;;;;;;;;;;;;;;;;;;5059986;28;19951;-60
2022/05/10 13:41:17;;;;;;;;;;;;;;;;;;5077831;28;20366;-60
2022/05/10 13:43:44;;;;;;;;;;;;;;;;;;5062687;28;19928;-61
2022/05/10 13:46:11;;;;;;;;;;;;;;;;;;5063266;28;19939;-61
2022/05/10 13:48:38;;;;;;;;;;;;;;;;;;5062962;28;20308;-61
2022/05/10 13:51:05;;;;;;;;;;;;;;;;;;5060667;28;19936;-61
2022/05/10 13:53:32;;;;;;;;;;;;;;;;;;5065829;28;20273;-62
2022/05/10 13:55:59;;;;;;;;;;;;;;;;;;5065662;28;19932;-61
2022/05/10 13:58:27;;;;;;;;;;;;;;;;;;5065843;28;19932;-61
2022/05/10 14:00:54;;;;;;;;;;;;;;;;;;5067018;28;19931;-61
2022/05/10 14:03:24;;;;;;;;;;;;;;;;;;5063545;28;19947;-61
2022/05/10 14:05:51;;;;;;;;;;;;;;;;;;5062446;28;19971;-62
2022/05/10 14:08:19;;;;;;;;;;;;;;;;;;5076431;28;19947;-62
2022/05/10 14:10:46;;;;;;;;;;;;;;;;;;5060606;28;20246;-61
2022/05/10 14:13:19;;;;;;;;;;;;;;;;;;5074359;28;20290;-61
2022/05/10 14:15:46;;;;;;;;;;;;;;;;;;5059628;28;19939;-61
2022/05/10 14:18:13;;;;;;;;;;;;;;;;;;5065469;28;19937;-62
2022/05/10 14:20:41;;;;;;;;;;;;;;;;;;5068771;28;19928;-63
2022/05/10 14:23:10;;;;;;;;;;;;;;;;;;5066227;28;19932;-62
2022/05/10 14:25:37;;;;;;;;;;;;;;;;;;5073580;28;19924;-62
2022/05/10 14:28:19;;;;;;;;;;;;;;;;;;5063448;28;19924;-60
2022/05/10 14:30:56;;;;;;;;;;;;;;;;;;5063761;28;19928;-61
2022/05/10 14:33:24;;;;;;;;;;;;;;;;;;5072852;28;19924;-61
2022/05/10 14:35:51;;;;;;;;;;;;;;;;;;5066086;28;19930;-61
2022/05/10 14:38:19;;;;;;;;;;;;;;;;;;5068346;28;19925;-62
2022/05/10 14:40:46;;;;;;;;;;;;;;;;;;5061137;28;19931;-62
2022/05/10 14:43:13;;;;;;;;;;;;;;;;;;5077584;28;19935;-62
2022/05/10 14:45:42;;;;;;;;;;;;;;;;;;5068823;28;20029;-62
2022/05/10 14:48:09;;;;;;;;;;;;;;;;;;5070594;28;19928;-62
2022/05/10 14:50:37;;;;;;;;;;;;;;;;;;5058879;28;19959;-62
2022/05/10 14:53:04;;;;;;;;;;;;;;;;;;5059349;28;21635;-62
2022/05/10 14:55:33;;;;;;;;;;;;;;;;;;5063362;28;19924;-62
2022/05/10 14:58:00;;;;;;;;;;;;;;;;;;5059190;28;19939;-62
2022/05/10 15:03:04;;;;;;;;;;;;;;;;;;5070163;28;19927;-62
2022/05/10 15:05:31;;;;;;;;;;;;;;;;;;5067804;28;19924;-62
2022/05/10 15:07:58;;;;;;;;;;;;;;;;;;5062099;28;19932;-62
2022/05/10 15:10:25;;;;;;;;;;;;;;;;;;5065300;28;20328;-62
2022/05/10 15:13:03;;;;;;;;;;;;;;;;;;5066261;28;19932;-61
2022/05/10 15:15:30;;;;;;;;;;;;;;;;;;5067081;28;20007;-61
2022/05/10 15:20:46;;;;;;;;;;;;;;;;;;5069574;28;20398;-61
2022/05/10 15:23:15;;;;;;;;;;;;;;;;;;5072083;28;19951;-62
2022/05/10 15:25:43;;;;;;;;;;;;;;;;;;5054869;28;20009;-62
2022/05/10 15:28:12;;;;;;;;;;;;;;;;;;5066099;28;19963;-62
2022/05/10 15:30:40;;;;;;;;;;;;;;;;;;5061426;28;20296;-61
2022/05/10 15:33:10;;;;;;;;;;;;;;;;;;5069146;28;19928;-62
2022/05/10 15:35:37;;;;;;;;;;;;;;;;;;5066119;28;20512;-62
2022/05/10 15:38:04;;;;;;;;;;;;;;;;;;5062840;28;19944;-62
2022/05/10 15:40:31;;;;;;;;;;;;;;;;;;5066065;28;19924;-62
2022/05/10 15:42:58;;;;;;;;;;;;;;;;;;5075556;28;19934;-62
2022/05/10 15:45:25;;;;;;;;;;;;;;;;;;5061627;28;19927;-62
2022/05/10 15:47:53;;;;;;;;;;;;;;;;;;5058049;28;19935;-62
2022/05/10 15:50:20;;;;;;;;;;;;;;;;;;5060413;28;19925;-62